sensor_id;sensor_type;location;lat;lon;timestamp;temperature;humidity
25024;DHT22;13033;50.936;5.334;2023-02-26T00:00:38;1.80;99.90
25024;DHT22;13033;50.936;5.334;2023-02-26T00:03:04;1.80;99.90
25024;DHT22;13033;50.936;5.334;2023-02-26T00:05:29;1.80;99.90
25024;DHT22;13033;50.936;5.334;2023-02-26T00:07:55;1.70;99.90
25024;DHT22;13033;50.936;5.334;2023-02-26T00:10:21;1.80;99.90
25024;DHT22;13033;50.936;5.334;2023-02-26T00:12:47;1.80;99.90
25024;DHT22;13033;50.936;5.334;2023-02-26T00:15:14;1.70;99.90
25024;DHT22;13033;50.936;5.334;2023-02-26T00:17:51;1.70;99.90
25024;DHT22;13033;50.936;5.334;2023-02-26T00:20:20;1.70;99.90
25024;DHT22;13033;50.936;5.334;2023-02-26T00:22:46;1.60;99.90
25024;DHT22;13033;50.936;5.334;2023-02-26T00:25:12;1.50;99.90
25024;DHT22;13033;50.936;5.334;2023-02-26T00:27:38;1.40;99.90
25024;DHT22;13033;50.936;5.334;2023-02-26T00:30:05;1.40;99.90
25024;DHT22;13033;50.936;5.334;2023-02-26T00:32:32;1.50;99.90
25024;DHT22;13033;50.936;5.334;2023-02-26T00:34:58;1.50;99.90
25024;DHT22;13033;50.936;5.334;2023-02-26T00:42:39;1.30;99.90
25024;DHT22;13033;50.936;5.334;2023-02-26T00:45:06;1.40;99.90
25024;DHT22;13033;50.936;5.334;2023-02-26T00:47:50;1.40;99.90
25024;DHT22;13033;50.936;5.334;2023-02-26T00:50:23;1.50;99.90
25024;DHT22;13033;50.936;5.334;2023-02-26T00:52:56;1.50;99.90
25024;DHT22;13033;50.936;5.334;2023-02-26T00:55:23;1.30;99.90
25024;DHT22;13033;50.936;5.334;2023-02-26T00:57:49;1.20;99.90
25024;DHT22;13033;50.936;5.334;2023-02-26T01:00:15;1.20;99.90
25024;DHT22;13033;50.936;5.334;2023-02-26T01:02:42;1.20;99.90
25024;DHT22;13033;50.936;5.334;2023-02-26T01:05:09;1.10;99.90
25024;DHT22;13033;50.936;5.334;2023-02-26T01:10:39;1.30;99.90
25024;DHT22;13033;50.936;5.334;2023-02-26T01:13:05;1.30;99.90
25024;DHT22;13033;50.936;5.334;2023-02-26T01:15:31;1.40;99.90
25024;DHT22;13033;50.936;5.334;2023-02-26T01:18:15;1.30;99.90
25024;DHT22;13033;50.936;5.334;2023-02-26T01:20:53;1.20;99.90
25024;DHT22;13033;50.936;5.334;2023-02-26T01:23:24;1.20;99.90
25024;DHT22;13033;50.936;5.334;2023-02-26T01:26:01;1.20;99.90
25024;DHT22;13033;50.936;5.334;2023-02-26T01:28:28;1.20;99.90
25024;DHT22;13033;50.936;5.334;2023-02-26T01:30:57;1.10;99.90
25024;DHT22;13033;50.936;5.334;2023-02-26T01:36:07;1.10;99.90
25024;DHT22;13033;50.936;5.334;2023-02-26T01:41:53;1.20;99.90
25024;DHT22;13033;50.936;5.334;2023-02-26T01:49:23;1.20;99.90
25024;DHT22;13033;50.936;5.334;2023-02-26T01:54:21;1.30;99.90
25024;DHT22;13033;50.936;5.334;2023-02-26T01:56:55;1.30;99.90
25024;DHT22;13033;50.936;5.334;2023-02-26T01:59:22;1.30;99.90
25024;DHT22;13033;50.936;5.334;2023-02-26T02:01:51;1.40;99.90
25024;DHT22;13033;50.936;5.334;2023-02-26T02:04:18;1.50;99.90
25024;DHT22;13033;50.936;5.334;2023-02-26T02:06:45;1.50;99.90
25024;DHT22;13033;50.936;5.334;2023-02-26T02:09:11;1.50;99.90
25024;DHT22;13033;50.936;5.334;2023-02-26T02:12:00;1.40;99.90
25024;DHT22;13033;50.936;5.334;2023-02-26T02:14:40;1.20;99.90
25024;DHT22;13033;50.936;5.334;2023-02-26T02:17:26;1.30;99.90
25024;DHT22;13033;50.936;5.334;2023-02-26T02:33:37;1.00;99.90
25024;DHT22;13033;50.936;5.334;2023-02-26T02:36:12;1.00;99.90
25024;DHT22;13033;50.936;5.334;2023-02-26T02:38:51;1.00;99.90
25024;DHT22;13033;50.936;5.334;2023-02-26T02:41:26;1.10;99.90
25024;DHT22;13033;50.936;5.334;2023-02-26T02:43:54;1.10;99.90
25024;DHT22;13033;50.936;5.334;2023-02-26T02:46:25;1.20;99.90
25024;DHT22;13033;50.936;5.334;2023-02-26T02:49:12;1.20;99.90
25024;DHT22;13033;50.936;5.334;2023-02-26T02:51:45;1.30;99.90
25024;DHT22;13033;50.936;5.334;2023-02-26T02:57:24;1.20;99.90
25024;DHT22;13033;50.936;5.334;2023-02-26T02:59:55;1.20;99.90
25024;DHT22;13033;50.936;5.334;2023-02-26T03:05:18;1.20;99.90
25024;DHT22;13033;50.936;5.334;2023-02-26T03:07:55;1.20;99.90
25024;DHT22;13033;50.936;5.334;2023-02-26T03:10:21;1.20;99.90
25024;DHT22;13033;50.936;5.334;2023-02-26T03:12:47;1.20;99.90
25024;DHT22;13033;50.936;5.334;2023-02-26T03:15:13;1.20;99.90
25024;DHT22;13033;50.936;5.334;2023-02-26T03:17:53;1.20;99.90
25024;DHT22;13033;50.936;5.334;2023-02-26T03:20:38;1.20;99.90
25024;DHT22;13033;50.936;5.334;2023-02-26T03:23:21;1.20;99.90
25024;DHT22;13033;50.936;5.334;2023-02-26T03:26:02;1.20;99.90
25024;DHT22;13033;50.936;5.334;2023-02-26T03:28:42;1.10;99.90
25024;DHT22;13033;50.936;5.334;2023-02-26T03:31:19;1.10;99.90
25024;DHT22;13033;50.936;5.334;2023-02-26T03:34:46;1.00;99.90
25024;DHT22;13033;50.936;5.334;2023-02-26T03:37:07;1.00;99.90
25024;DHT22;13033;50.936;5.334;2023-02-26T03:39:40;0.90;99.90
25024;DHT22;13033;50.936;5.334;2023-02-26T03:42:29;1.00;99.90
25024;DHT22;13033;50.936;5.334;2023-02-26T03:45:17;1.00;99.90
25024;DHT22;13033;50.936;5.334;2023-02-26T03:47:47;0.90;99.90
25024;DHT22;13033;50.936;5.334;2023-02-26T03:50:16;0.90;99.90
25024;DHT22;13033;50.936;5.334;2023-02-26T03:52:46;0.90;99.90
25024;DHT22;13033;50.936;5.334;2023-02-26T03:55:31;1.00;99.90
25024;DHT22;13033;50.936;5.334;2023-02-26T03:57:58;0.90;99.90
25024;DHT22;13033;50.936;5.334;2023-02-26T04:00:26;1.00;99.90
25024;DHT22;13033;50.936;5.334;2023-02-26T04:03:13;1.00;99.90
25024;DHT22;13033;50.936;5.334;2023-02-26T04:05:46;1.00;99.90
25024;DHT22;13033;50.936;5.334;2023-02-26T04:08:13;1.00;99.90
25024;DHT22;13033;50.936;5.334;2023-02-26T04:10:46;1.00;99.90
25024;DHT22;13033;50.936;5.334;2023-02-26T04:13:16;0.90;99.90
25024;DHT22;13033;50.936;5.334;2023-02-26T04:15:42;0.80;99.90
25024;DHT22;13033;50.936;5.334;2023-02-26T04:18:07;0.80;99.90
25024;DHT22;13033;50.936;5.334;2023-02-26T04:20:33;0.90;99.90
25024;DHT22;13033;50.936;5.334;2023-02-26T04:23:00;0.90;99.90
25024;DHT22;13033;50.936;5.334;2023-02-26T04:25:26;0.90;99.90
25024;DHT22;13033;50.936;5.334;2023-02-26T04:27:52;0.90;99.90
25024;DHT22;13033;50.936;5.334;2023-02-26T04:30:18;0.80;99.90
25024;DHT22;13033;50.936;5.334;2023-02-26T04:32:43;0.90;99.90
25024;DHT22;13033;50.936;5.334;2023-02-26T04:35:09;0.80;99.90
25024;DHT22;13033;50.936;5.334;2023-02-26T04:37:34;0.80;99.90
25024;DHT22;13033;50.936;5.334;2023-02-26T04:40:00;0.80;99.90
25024;DHT22;13033;50.936;5.334;2023-02-26T04:42:26;0.80;99.90
25024;DHT22;13033;50.936;5.334;2023-02-26T04:44:53;0.70;99.90
25024;DHT22;13033;50.936;5.334;2023-02-26T04:47:18;0.80;99.90
25024;DHT22;13033;50.936;5.334;2023-02-26T04:49:44;0.80;99.90
25024;DHT22;13033;50.936;5.334;2023-02-26T04:52:10;0.70;99.90
25024;DHT22;13033;50.936;5.334;2023-02-26T04:54:35;0.70;99.90
25024;DHT22;13033;50.936;5.334;2023-02-26T04:57:02;0.60;99.90
25024;DHT22;13033;50.936;5.334;2023-02-26T04:59:28;0.60;99.90
25024;DHT22;13033;50.936;5.334;2023-02-26T05:01:54;0.60;99.90
25024;DHT22;13033;50.936;5.334;2023-02-26T05:04:19;0.60;99.90
25024;DHT22;13033;50.936;5.334;2023-02-26T05:06:45;0.60;99.90
25024;DHT22;13033;50.936;5.334;2023-02-26T05:09:11;0.50;99.90
25024;DHT22;13033;50.936;5.334;2023-02-26T05:11:36;0.50;99.90
25024;DHT22;13033;50.936;5.334;2023-02-26T05:14:02;0.50;99.90
25024;DHT22;13033;50.936;5.334;2023-02-26T05:16:28;0.50;99.90
25024;DHT22;13033;50.936;5.334;2023-02-26T05:18:53;0.50;99.90
25024;DHT22;13033;50.936;5.334;2023-02-26T05:21:19;0.50;99.90
25024;DHT22;13033;50.936;5.334;2023-02-26T05:23:46;0.50;99.90
25024;DHT22;13033;50.936;5.334;2023-02-26T05:26:12;0.50;99.90
25024;DHT22;13033;50.936;5.334;2023-02-26T05:28:37;0.50;99.90
25024;DHT22;13033;50.936;5.334;2023-02-26T05:31:03;0.50;99.90
25024;DHT22;13033;50.936;5.334;2023-02-26T05:33:29;0.50;99.90
25024;DHT22;13033;50.936;5.334;2023-02-26T05:35:55;0.40;99.90
25024;DHT22;13033;50.936;5.334;2023-02-26T05:38:22;0.40;99.90
25024;DHT22;13033;50.936;5.334;2023-02-26T05:40:47;0.50;99.90
25024;DHT22;13033;50.936;5.334;2023-02-26T05:43:13;0.50;99.90
25024;DHT22;13033;50.936;5.334;2023-02-26T05:45:39;0.40;99.90
25024;DHT22;13033;50.936;5.334;2023-02-26T05:48:04;0.40;99.90
25024;DHT22;13033;50.936;5.334;2023-02-26T05:50:30;0.20;99.90
25024;DHT22;13033;50.936;5.334;2023-02-26T05:52:56;0.20;99.90
25024;DHT22;13033;50.936;5.334;2023-02-26T05:55:22;0.30;99.90
25024;DHT22;13033;50.936;5.334;2023-02-26T05:57:48;0.30;99.90
25024;DHT22;13033;50.936;5.334;2023-02-26T06:00:14;0.30;99.90
25024;DHT22;13033;50.936;5.334;2023-02-26T06:02:40;0.30;99.90
25024;DHT22;13033;50.936;5.334;2023-02-26T06:05:07;0.20;99.90
25024;DHT22;13033;50.936;5.334;2023-02-26T06:07:33;0.30;99.90
25024;DHT22;13033;50.936;5.334;2023-02-26T06:09:58;0.30;99.90
25024;DHT22;13033;50.936;5.334;2023-02-26T06:12:25;0.20;99.90
25024;DHT22;13033;50.936;5.334;2023-02-26T06:14:51;0.30;99.90
25024;DHT22;13033;50.936;5.334;2023-02-26T06:17:17;0.20;99.90
25024;DHT22;13033;50.936;5.334;2023-02-26T06:19:42;0.20;99.90
25024;DHT22;13033;50.936;5.334;2023-02-26T06:22:09;0.20;99.90
25024;DHT22;13033;50.936;5.334;2023-02-26T06:24:34;0.20;99.90
25024;DHT22;13033;50.936;5.334;2023-02-26T06:27:00;0.20;99.90
25024;DHT22;13033;50.936;5.334;2023-02-26T06:29:26;0.20;99.90
25024;DHT22;13033;50.936;5.334;2023-02-26T06:31:51;0.20;99.90
25024;DHT22;13033;50.936;5.334;2023-02-26T06:34:17;0.20;99.90
25024;DHT22;13033;50.936;5.334;2023-02-26T06:36:43;0.10;99.90
25024;DHT22;13033;50.936;5.334;2023-02-26T06:39:09;0.10;99.90
25024;DHT22;13033;50.936;5.334;2023-02-26T06:41:36;0.10;99.90
25024;DHT22;13033;50.936;5.334;2023-02-26T06:44:03;0.20;99.90
25024;DHT22;13033;50.936;5.334;2023-02-26T06:46:29;0.20;99.90
25024;DHT22;13033;50.936;5.334;2023-02-26T06:48:54;0.20;99.90
25024;DHT22;13033;50.936;5.334;2023-02-26T06:51:20;0.20;99.90
25024;DHT22;13033;50.936;5.334;2023-02-26T06:53:46;0.20;99.90
25024;DHT22;13033;50.936;5.334;2023-02-26T06:56:12;0.10;99.90
25024;DHT22;13033;50.936;5.334;2023-02-26T06:58:38;0.20;99.90
25024;DHT22;13033;50.936;5.334;2023-02-26T07:01:04;0.30;99.90
25024;DHT22;13033;50.936;5.334;2023-02-26T07:03:30;0.30;99.90
25024;DHT22;13033;50.936;5.334;2023-02-26T07:05:55;0.20;99.90
25024;DHT22;13033;50.936;5.334;2023-02-26T07:08:21;0.40;99.90
25024;DHT22;13033;50.936;5.334;2023-02-26T07:10:48;0.20;99.90
25024;DHT22;13033;50.936;5.334;2023-02-26T07:13:15;0.30;99.90
25024;DHT22;13033;50.936;5.334;2023-02-26T07:15:41;0.30;99.90
25024;DHT22;13033;50.936;5.334;2023-02-26T07:18:07;0.40;99.90
25024;DHT22;13033;50.936;5.334;2023-02-26T07:20:33;0.50;99.90
25024;DHT22;13033;50.936;5.334;2023-02-26T07:22:58;0.50;99.90
25024;DHT22;13033;50.936;5.334;2023-02-26T07:25:24;0.50;99.90
25024;DHT22;13033;50.936;5.334;2023-02-26T07:27:50;0.50;99.90
25024;DHT22;13033;50.936;5.334;2023-02-26T07:30:16;0.50;99.90
25024;DHT22;13033;50.936;5.334;2023-02-26T07:32:42;0.50;99.90
25024;DHT22;13033;50.936;5.334;2023-02-26T07:35:08;0.50;99.90
25024;DHT22;13033;50.936;5.334;2023-02-26T07:37:34;0.60;99.90
25024;DHT22;13033;50.936;5.334;2023-02-26T07:40:00;0.70;99.90
25024;DHT22;13033;50.936;5.334;2023-02-26T07:42:26;0.70;99.90
25024;DHT22;13033;50.936;5.334;2023-02-26T07:44:51;0.70;99.90
25024;DHT22;13033;50.936;5.334;2023-02-26T07:47:17;0.80;99.90
25024;DHT22;13033;50.936;5.334;2023-02-26T07:49:43;0.90;99.90
25024;DHT22;13033;50.936;5.334;2023-02-26T07:52:08;0.90;99.90
25024;DHT22;13033;50.936;5.334;2023-02-26T07:54:35;0.90;99.90
25024;DHT22;13033;50.936;5.334;2023-02-26T07:57:01;1.00;99.90
25024;DHT22;13033;50.936;5.334;2023-02-26T07:59:27;1.00;99.90
25024;DHT22;13033;50.936;5.334;2023-02-26T08:01:52;0.90;99.90
25024;DHT22;13033;50.936;5.334;2023-02-26T08:04:18;1.10;99.90
25024;DHT22;13033;50.936;5.334;2023-02-26T08:06:44;1.10;99.90
25024;DHT22;13033;50.936;5.334;2023-02-26T08:09:10;1.30;99.90
25024;DHT22;13033;50.936;5.334;2023-02-26T08:11:36;1.40;99.90
25024;DHT22;13033;50.936;5.334;2023-02-26T08:14:05;1.50;99.90
25024;DHT22;13033;50.936;5.334;2023-02-26T08:16:32;1.60;99.90
25024;DHT22;13033;50.936;5.334;2023-02-26T08:18:59;1.60;99.90
25024;DHT22;13033;50.936;5.334;2023-02-26T08:21:25;1.60;99.90
25024;DHT22;13033;50.936;5.334;2023-02-26T08:23:51;1.90;99.90
25024;DHT22;13033;50.936;5.334;2023-02-26T08:26:17;1.80;99.90
25024;DHT22;13033;50.936;5.334;2023-02-26T08:28:43;1.90;99.90
25024;DHT22;13033;50.936;5.334;2023-02-26T08:31:11;1.90;99.90
25024;DHT22;13033;50.936;5.334;2023-02-26T08:33:37;1.80;99.90
25024;DHT22;13033;50.936;5.334;2023-02-26T08:36:03;1.80;99.90
25024;DHT22;13033;50.936;5.334;2023-02-26T08:38:30;2.00;99.90
25024;DHT22;13033;50.936;5.334;2023-02-26T08:40:55;2.00;99.90
25024;DHT22;13033;50.936;5.334;2023-02-26T08:43:22;2.20;99.90
25024;DHT22;13033;50.936;5.334;2023-02-26T08:45:48;2.40;99.90
25024;DHT22;13033;50.936;5.334;2023-02-26T08:48:14;2.40;99.90
25024;DHT22;13033;50.936;5.334;2023-02-26T08:50:39;2.50;99.90
25024;DHT22;13033;50.936;5.334;2023-02-26T08:53:05;2.40;99.90
25024;DHT22;13033;50.936;5.334;2023-02-26T08:55:31;2.40;99.90
25024;DHT22;13033;50.936;5.334;2023-02-26T08:57:57;2.40;99.90
25024;DHT22;13033;50.936;5.334;2023-02-26T09:00:23;2.40;99.90
25024;DHT22;13033;50.936;5.334;2023-02-26T09:02:49;2.60;99.90
25024;DHT22;13033;50.936;5.334;2023-02-26T09:05:15;2.70;99.90
25024;DHT22;13033;50.936;5.334;2023-02-26T09:07:42;2.90;99.90
25024;DHT22;13033;50.936;5.334;2023-02-26T09:10:09;2.90;99.90
25024;DHT22;13033;50.936;5.334;2023-02-26T09:12:35;2.90;99.90
25024;DHT22;13033;50.936;5.334;2023-02-26T09:15:05;3.00;99.90
25024;DHT22;13033;50.936;5.334;2023-02-26T09:17:31;3.00;99.90
25024;DHT22;13033;50.936;5.334;2023-02-26T09:19:57;3.10;99.90
25024;DHT22;13033;50.936;5.334;2023-02-26T09:22:23;3.20;99.90
25024;DHT22;13033;50.936;5.334;2023-02-26T09:24:49;3.10;99.90
25024;DHT22;13033;50.936;5.334;2023-02-26T09:27:15;2.90;99.90
25024;DHT22;13033;50.936;5.334;2023-02-26T09:29:42;3.00;99.90
25024;DHT22;13033;50.936;5.334;2023-02-26T09:32:08;3.00;99.90
25024;DHT22;13033;50.936;5.334;2023-02-26T09:34:34;3.10;99.90
25024;DHT22;13033;50.936;5.334;2023-02-26T09:37:00;3.20;99.90
25024;DHT22;13033;50.936;5.334;2023-02-26T09:39:27;3.40;99.90
25024;DHT22;13033;50.936;5.334;2023-02-26T09:41:55;3.60;99.90
25024;DHT22;13033;50.936;5.334;2023-02-26T09:44:27;3.80;99.90
25024;DHT22;13033;50.936;5.334;2023-02-26T09:47:16;3.90;99.90
25024;DHT22;13033;50.936;5.334;2023-02-26T09:52:32;3.90;99.90
25024;DHT22;13033;50.936;5.334;2023-02-26T09:57:56;3.90;99.90
25024;DHT22;13033;50.936;5.334;2023-02-26T10:03:28;3.50;99.90
25024;DHT22;13033;50.936;5.334;2023-02-26T10:08:41;3.20;99.90
25024;DHT22;13033;50.936;5.334;2023-02-26T10:14:02;3.20;99.90
25024;DHT22;13033;50.936;5.334;2023-02-26T10:16:34;3.30;99.90
25024;DHT22;13033;50.936;5.334;2023-02-26T10:19:13;3.20;99.90
25024;DHT22;13033;50.936;5.334;2023-02-26T10:21:49;3.30;99.90
25024;DHT22;13033;50.936;5.334;2023-02-26T10:24:36;3.50;99.90
25024;DHT22;13033;50.936;5.334;2023-02-26T10:27:05;3.70;99.90
25024;DHT22;13033;50.936;5.334;2023-02-26T10:29:57;3.90;99.90
25024;DHT22;13033;50.936;5.334;2023-02-26T10:32:51;4.10;99.90
25024;DHT22;13033;50.936;5.334;2023-02-26T10:35:21;4.60;99.90
25024;DHT22;13033;50.936;5.334;2023-02-26T10:38:09;4.60;99.90
25024;DHT22;13033;50.936;5.334;2023-02-26T10:43:13;4.70;99.90
25024;DHT22;13033;50.936;5.334;2023-02-26T10:51:19;4.60;99.90
25024;DHT22;13033;50.936;5.334;2023-02-26T10:54:04;4.70;99.90
25024;DHT22;13033;50.936;5.334;2023-02-26T10:56:35;5.00;99.90
25024;DHT22;13033;50.936;5.334;2023-02-26T10:59:01;5.10;99.90
25024;DHT22;13033;50.936;5.334;2023-02-26T11:01:29;5.30;99.90
25024;DHT22;13033;50.936;5.334;2023-02-26T11:04:10;5.40;99.90
25024;DHT22;13033;50.936;5.334;2023-02-26T11:07:01;5.40;99.90
25024;DHT22;13033;50.936;5.334;2023-02-26T11:09:36;5.20;99.90
25024;DHT22;13033;50.936;5.334;2023-02-26T11:12:12;4.90;99.90
25024;DHT22;13033;50.936;5.334;2023-02-26T11:14:39;4.70;99.90
25024;DHT22;13033;50.936;5.334;2023-02-26T11:17:32;4.50;99.90
25024;DHT22;13033;50.936;5.334;2023-02-26T11:20:02;4.40;99.90
25024;DHT22;13033;50.936;5.334;2023-02-26T11:22:35;4.20;99.90
25024;DHT22;13033;50.936;5.334;2023-02-26T11:25:03;4.20;99.90
25024;DHT22;13033;50.936;5.334;2023-02-26T11:27:31;4.00;99.90
25024;DHT22;13033;50.936;5.334;2023-02-26T11:30:09;4.00;99.90
25024;DHT22;13033;50.936;5.334;2023-02-26T11:32:39;4.00;99.90
25024;DHT22;13033;50.936;5.334;2023-02-26T11:35:08;3.90;99.90
25024;DHT22;13033;50.936;5.334;2023-02-26T11:37:38;4.10;99.90
25024;DHT22;13033;50.936;5.334;2023-02-26T11:40:36;4.10;99.90
25024;DHT22;13033;50.936;5.334;2023-02-26T11:43:10;4.40;99.90
25024;DHT22;13033;50.936;5.334;2023-02-26T11:45:41;4.60;99.90
25024;DHT22;13033;50.936;5.334;2023-02-26T11:48:12;4.70;99.90
25024;DHT22;13033;50.936;5.334;2023-02-26T11:50:45;4.80;99.90
25024;DHT22;13033;50.936;5.334;2023-02-26T11:53:21;5.00;99.90
25024;DHT22;13033;50.936;5.334;2023-02-26T11:55:52;5.00;99.90
25024;DHT22;13033;50.936;5.334;2023-02-26T11:58:23;4.90;99.90
25024;DHT22;13033;50.936;5.334;2023-02-26T12:00:53;4.90;99.90
25024;DHT22;13033;50.936;5.334;2023-02-26T12:03:21;5.10;99.90
25024;DHT22;13033;50.936;5.334;2023-02-26T12:05:49;5.00;99.90
25024;DHT22;13033;50.936;5.334;2023-02-26T12:13:46;4.50;99.90
25024;DHT22;13033;50.936;5.334;2023-02-26T12:33:15;5.00;99.90
25024;DHT22;13033;50.936;5.334;2023-02-26T12:38:49;5.50;99.90
25024;DHT22;13033;50.936;5.334;2023-02-26T12:41:21;5.30;99.90
25024;DHT22;13033;50.936;5.334;2023-02-26T12:43:54;5.10;99.90
25024;DHT22;13033;50.936;5.334;2023-02-26T12:55:38;5.20;99.90
25024;DHT22;13033;50.936;5.334;2023-02-26T12:58:24;5.20;99.90
25024;DHT22;13033;50.936;5.334;2023-02-26T13:01:12;5.00;99.90
25024;DHT22;13033;50.936;5.334;2023-02-26T13:20:00;5.60;96.70
25024;DHT22;13033;50.936;5.334;2023-02-26T13:22:35;5.80;97.50
25024;DHT22;13033;50.936;5.334;2023-02-26T13:25:21;5.90;98.30
25024;DHT22;13033;50.936;5.334;2023-02-26T13:27:50;6.00;98.50
25024;DHT22;13033;50.936;5.334;2023-02-26T13:30:25;6.10;98.20
25024;DHT22;13033;50.936;5.334;2023-02-26T13:32:55;5.90;98.50
25024;DHT22;13033;50.936;5.334;2023-02-26T13:35:36;5.80;98.50
25024;DHT22;13033;50.936;5.334;2023-02-26T13:41:33;5.30;97.60
25024;DHT22;13033;50.936;5.334;2023-02-26T13:44:21;5.50;97.20
25024;DHT22;13033;50.936;5.334;2023-02-26T13:47:00;5.50;97.00
25024;DHT22;13033;50.936;5.334;2023-02-26T13:52:25;5.50;96.50
25024;DHT22;13033;50.936;5.334;2023-02-26T13:54:52;5.60;95.70
25024;DHT22;13033;50.936;5.334;2023-02-26T13:57:42;5.60;96.60
25024;DHT22;13033;50.936;5.334;2023-02-26T14:00:27;5.60;96.20
25024;DHT22;13033;50.936;5.334;2023-02-26T14:03:09;5.90;96.30
25024;DHT22;13033;50.936;5.334;2023-02-26T14:08:38;6.20;97.20
25024;DHT22;13033;50.936;5.334;2023-02-26T14:19:32;6.00;94.10
25024;DHT22;13033;50.936;5.334;2023-02-26T14:27:43;5.70;93.90
25024;DHT22;13033;50.936;5.334;2023-02-26T14:35:34;5.70;92.60
25024;DHT22;13033;50.936;5.334;2023-02-26T14:38:12;5.80;93.00
25024;DHT22;13033;50.936;5.334;2023-02-26T14:40:45;5.90;93.00
25024;DHT22;13033;50.936;5.334;2023-02-26T14:43:20;5.90;92.60
25024;DHT22;13033;50.936;5.334;2023-02-26T14:45:47;5.80;92.90
25024;DHT22;13033;50.936;5.334;2023-02-26T14:48:16;5.70;93.10
25024;DHT22;13033;50.936;5.334;2023-02-26T14:50:52;5.80;93.30
25024;DHT22;13033;50.936;5.334;2023-02-26T15:04:29;5.60;92.20
25024;DHT22;13033;50.936;5.334;2023-02-26T15:10:14;5.80;93.30
25024;DHT22;13033;50.936;5.334;2023-02-26T15:21:36;8.20;87.50
25024;DHT22;13033;50.936;5.334;2023-02-26T15:23:58;8.60;86.40
25024;DHT22;13033;50.936;5.334;2023-02-26T15:26:34;9.40;84.00
25024;DHT22;13033;50.936;5.334;2023-02-26T15:29:03;9.10;82.30
25024;DHT22;13033;50.936;5.334;2023-02-26T15:31:36;9.00;81.80
25024;DHT22;13033;50.936;5.334;2023-02-26T15:34:04;9.10;81.70
25024;DHT22;13033;50.936;5.334;2023-02-26T15:36:30;9.30;81.50
25024;DHT22;13033;50.936;5.334;2023-02-26T15:38:59;9.30;81.30
25024;DHT22;13033;50.936;5.334;2023-02-26T15:41:27;9.40;80.80
25024;DHT22;13033;50.936;5.334;2023-02-26T15:43:58;9.40;80.60
25024;DHT22;13033;50.936;5.334;2023-02-26T15:46:35;9.60;78.60
25024;DHT22;13033;50.936;5.334;2023-02-26T15:49:10;9.40;77.20
25024;DHT22;13033;50.936;5.334;2023-02-26T15:51:38;9.00;77.10
25024;DHT22;13033;50.936;5.334;2023-02-26T15:54:05;9.00;77.20
25024;DHT22;13033;50.936;5.334;2023-02-26T15:56:35;8.80;77.00
25024;DHT22;13033;50.936;5.334;2023-02-26T15:59:17;9.10;77.20
25024;DHT22;13033;50.936;5.334;2023-02-26T16:01:44;9.50;75.40
25024;DHT22;13033;50.936;5.334;2023-02-26T16:04:16;9.60;74.90
25024;DHT22;13033;50.936;5.334;2023-02-26T16:06:53;10.10;74.20
25024;DHT22;13033;50.936;5.334;2023-02-26T16:09:35;10.70;72.50
25024;DHT22;13033;50.936;5.334;2023-02-26T16:12:08;10.20;70.90
25024;DHT22;13033;50.936;5.334;2023-02-26T16:14:37;9.70;72.00
25024;DHT22;13033;50.936;5.334;2023-02-26T16:17:06;9.20;72.60
25024;DHT22;13033;50.936;5.334;2023-02-26T16:22:07;9.50;72.90
25024;DHT22;13033;50.936;5.334;2023-02-26T16:24:36;9.70;72.70
25024;DHT22;13033;50.936;5.334;2023-02-26T16:27:05;9.80;71.50
25024;DHT22;13033;50.936;5.334;2023-02-26T16:29:34;9.10;73.00
25024;DHT22;13033;50.936;5.334;2023-02-26T16:32:02;8.20;75.70
25024;DHT22;13033;50.936;5.334;2023-02-26T16:34:38;7.40;78.40
25024;DHT22;13033;50.936;5.334;2023-02-26T16:40:23;6.20;82.20
25024;DHT22;13033;50.936;5.334;2023-02-26T16:45:24;5.80;85.70
25024;DHT22;13033;50.936;5.334;2023-02-26T16:47:54;5.60;87.20
25024;DHT22;13033;50.936;5.334;2023-02-26T16:50:25;5.40;88.70
25024;DHT22;13033;50.936;5.334;2023-02-26T16:55:30;5.40;90.10
25024;DHT22;13033;50.936;5.334;2023-02-26T16:57:57;5.40;90.40
25024;DHT22;13033;50.936;5.334;2023-02-26T17:00:27;5.20;90.80
25024;DHT22;13033;50.936;5.334;2023-02-26T17:03:20;5.10;91.40
25024;DHT22;13033;50.936;5.334;2023-02-26T17:06:08;5.10;91.80
25024;DHT22;13033;50.936;5.334;2023-02-26T17:08:50;5.20;91.80
25024;DHT22;13033;50.936;5.334;2023-02-26T17:11:28;5.20;92.00
25024;DHT22;13033;50.936;5.334;2023-02-26T17:16:42;5.00;93.40
25024;DHT22;13033;50.936;5.334;2023-02-26T17:19:07;4.90;93.60
25024;DHT22;13033;50.936;5.334;2023-02-26T17:21:36;4.90;94.00
25024;DHT22;13033;50.936;5.334;2023-02-26T17:24:05;4.80;94.30
25024;DHT22;13033;50.936;5.334;2023-02-26T17:26:31;4.70;94.80
25024;DHT22;13033;50.936;5.334;2023-02-26T17:28:57;4.70;95.20
25024;DHT22;13033;50.936;5.334;2023-02-26T17:31:22;4.70;95.60
25024;DHT22;13033;50.936;5.334;2023-02-26T17:33:48;4.60;96.10
25024;DHT22;13033;50.936;5.334;2023-02-26T17:36:16;4.60;96.40
25024;DHT22;13033;50.936;5.334;2023-02-26T17:38:45;4.50;96.80
25024;DHT22;13033;50.936;5.334;2023-02-26T17:41:15;4.40;97.40
25024;DHT22;13033;50.936;5.334;2023-02-26T17:43:41;4.30;97.60
25024;DHT22;13033;50.936;5.334;2023-02-26T17:46:09;4.40;97.70
25024;DHT22;13033;50.936;5.334;2023-02-26T17:48:36;4.40;97.90
25024;DHT22;13033;50.936;5.334;2023-02-26T17:51:02;4.40;98.20
25024;DHT22;13033;50.936;5.334;2023-02-26T17:53:28;4.30;98.30
25024;DHT22;13033;50.936;5.334;2023-02-26T17:55:58;4.20;98.90
25024;DHT22;13033;50.936;5.334;2023-02-26T17:58:29;4.20;99.40
25024;DHT22;13033;50.936;5.334;2023-02-26T18:00:56;4.10;99.90
25024;DHT22;13033;50.936;5.334;2023-02-26T18:03:22;4.10;99.90
25024;DHT22;13033;50.936;5.334;2023-02-26T18:05:48;4.00;99.90
25024;DHT22;13033;50.936;5.334;2023-02-26T18:08:24;4.00;99.90
25024;DHT22;13033;50.936;5.334;2023-02-26T18:10:51;4.10;99.90
25024;DHT22;13033;50.936;5.334;2023-02-26T18:13:18;4.10;99.90
25024;DHT22;13033;50.936;5.334;2023-02-26T18:15:44;4.00;99.90
25024;DHT22;13033;50.936;5.334;2023-02-26T18:18:14;4.10;99.90
25024;DHT22;13033;50.936;5.334;2023-02-26T18:20:41;4.00;99.90
25024;DHT22;13033;50.936;5.334;2023-02-26T18:23:09;3.90;99.90
25024;DHT22;13033;50.936;5.334;2023-02-26T18:25:40;3.80;99.90
25024;DHT22;13033;50.936;5.334;2023-02-26T18:28:08;3.80;99.90
25024;DHT22;13033;50.936;5.334;2023-02-26T18:30:35;3.80;99.90
25024;DHT22;13033;50.936;5.334;2023-02-26T18:33:04;3.80;99.90
25024;DHT22;13033;50.936;5.334;2023-02-26T18:35:30;3.70;99.90
25024;DHT22;13033;50.936;5.334;2023-02-26T18:37:57;3.70;99.90
25024;DHT22;13033;50.936;5.334;2023-02-26T18:40:24;3.60;99.90
25024;DHT22;13033;50.936;5.334;2023-02-26T18:42:51;3.60;99.90
25024;DHT22;13033;50.936;5.334;2023-02-26T18:45:17;3.50;99.90
25024;DHT22;13033;50.936;5.334;2023-02-26T18:47:44;3.50;99.90
25024;DHT22;13033;50.936;5.334;2023-02-26T18:50:12;3.50;99.90
25024;DHT22;13033;50.936;5.334;2023-02-26T18:52:38;3.50;99.90
25024;DHT22;13033;50.936;5.334;2023-02-26T18:55:04;3.50;99.90
25024;DHT22;13033;50.936;5.334;2023-02-26T18:57:31;3.50;99.90
25024;DHT22;13033;50.936;5.334;2023-02-26T18:59:58;3.50;99.90
25024;DHT22;13033;50.936;5.334;2023-02-26T19:02:24;3.50;99.90